createdAt,value
2019-01-17T00:00:53.356Z,0.00
2019-01-17T00:01:53.505Z,0.00
2019-01-17T00:02:53.333Z,0.00
2019-01-17T00:03:53.324Z,0.00
2019-01-17T00:04:53.323Z,0.00
2019-01-17T00:05:53.308Z,0.00
2019-01-17T00:06:53.293Z,0.00
2019-01-17T00:07:53.297Z,0.00
2019-01-17T00:08:53.269Z,0.00
2019-01-17T00:09:53.390Z,0.00
2019-01-17T00:10:53.261Z,0.00
2019-01-17T00:11:53.262Z,0.00
2019-01-17T00:12:53.229Z,0.00
2019-01-17T00:13:53.221Z,0.00
2019-01-17T00:14:53.211Z,0.00
2019-01-17T00:15:53.215Z,0.00
2019-01-17T00:16:53.189Z,0.00
2019-01-17T00:17:53.171Z,0.00
2019-01-17T00:18:53.175Z,0.00
2019-01-17T00:19:53.148Z,0.00
2019-01-17T00:20:53.141Z,0.00
2019-01-17T00:21:53.135Z,0.00
2019-01-17T00:22:53.121Z,0.00
2019-01-17T00:23:53.103Z,0.00
2019-01-17T00:24:53.097Z,0.00
2019-01-17T00:25:53.088Z,0.00
2019-01-17T00:26:53.078Z,0.00
2019-01-17T00:27:53.077Z,0.00
2019-01-17T00:28:53.079Z,0.00
2019-01-17T00:29:53.047Z,0.00
2019-01-17T00:30:53.081Z,0.00
2019-01-17T00:31:53.036Z,0.00
2019-01-17T00:32:53.023Z,0.00
2019-01-17T00:33:53.007Z,0.00
2019-01-17T00:34:53.006Z,0.00
2019-01-17T00:35:52.983Z,0.00
2019-01-17T00:36:52.971Z,0.00
2019-01-17T00:37:52.957Z,0.00
2019-01-17T00:38:53.015Z,0.00
2019-01-17T00:39:52.940Z,0.00
2019-01-17T00:40:52.940Z,0.00
2019-01-17T00:41:52.923Z,0.00
2019-01-17T00:42:52.932Z,0.00
2019-01-17T00:43:52.899Z,0.00
2019-01-17T00:44:52.883Z,0.00
2019-01-17T00:45:52.878Z,0.00
2019-01-17T00:46:52.866Z,0.00
2019-01-17T00:47:52.860Z,0.00
2019-01-17T00:48:52.842Z,0.00
2019-01-17T00:49:52.833Z,0.00
2019-01-17T00:50:52.839Z,0.00
2019-01-17T00:51:52.807Z,0.00
2019-01-17T00:52:52.803Z,0.00
2019-01-17T00:53:52.784Z,0.00
2019-01-17T00:54:52.779Z,0.00
2019-01-17T00:55:52.869Z,0.00
2019-01-17T00:56:52.752Z,0.00
2019-01-17T00:57:52.776Z,0.00
2019-01-17T00:58:52.729Z,0.00
2019-01-17T00:59:52.740Z,0.00
2019-01-17T01:00:52.707Z,0.00
2019-01-17T01:01:52.697Z,0.00
2019-01-17T01:02:52.692Z,0.00
2019-01-17T01:03:52.674Z,0.00
2019-01-17T01:04:52.699Z,0.00
2019-01-17T01:05:52.673Z,0.00
2019-01-17T01:06:52.644Z,0.00
2019-01-17T01:07:52.640Z,0.00
2019-01-17T01:08:52.639Z,0.00
2019-01-17T01:09:52.611Z,0.00
2019-01-17T01:10:52.619Z,0.00
2019-01-17T01:11:52.593Z,0.00
2019-01-17T01:12:52.588Z,0.00
2019-01-17T01:13:52.569Z,0.00
2019-01-17T01:14:52.564Z,0.00
2019-01-17T01:15:52.555Z,0.00
2019-01-17T01:16:52.536Z,0.00
2019-01-17T01:17:52.530Z,0.00
2019-01-17T01:18:52.514Z,0.00
2019-01-17T01:19:52.510Z,0.00
2019-01-17T01:20:52.500Z,0.00
2019-01-17T01:21:52.499Z,0.00
2019-01-17T01:22:52.475Z,0.00
2019-01-17T01:23:52.480Z,0.00
2019-01-17T01:24:52.450Z,0.00
2019-01-17T01:25:52.597Z,0.00
2019-01-17T01:26:52.466Z,0.00
2019-01-17T01:27:52.467Z,0.00
2019-01-17T01:28:52.420Z,0.00
2019-01-17T01:29:52.402Z,0.00
2019-01-17T01:30:52.386Z,0.00
2019-01-17T01:31:52.383Z,0.00
2019-01-17T01:32:52.373Z,0.00
2019-01-17T01:33:52.361Z,0.00
2019-01-17T01:34:52.367Z,0.00
2019-01-17T01:35:52.338Z,0.00
2019-01-17T01:36:52.330Z,0.00
2019-01-17T01:37:52.314Z,0.00
2019-01-17T01:38:52.514Z,0.00
2019-01-17T01:39:52.297Z,0.00
2019-01-17T01:40:52.280Z,0.00
2019-01-17T01:41:52.271Z,0.00
2019-01-17T01:42:52.256Z,0.00
2019-01-17T01:43:52.251Z,0.00
2019-01-17T01:44:52.250Z,0.00
2019-01-17T01:45:52.222Z,0.00
2019-01-17T01:46:52.221Z,0.00
2019-01-17T01:47:52.207Z,0.00
2019-01-17T01:48:52.199Z,0.00
2019-01-17T01:49:52.189Z,0.00
2019-01-17T01:50:52.172Z,0.00
2019-01-17T01:51:52.188Z,0.00
2019-01-17T01:52:52.150Z,0.00
2019-01-17T01:53:52.144Z,0.00
2019-01-17T01:54:52.128Z,0.00
2019-01-17T01:55:52.122Z,0.00
2019-01-17T01:56:52.111Z,0.00
2019-01-17T01:57:52.094Z,0.00
2019-01-17T01:58:52.098Z,0.00
2019-01-17T01:59:52.084Z,0.00
2019-01-17T02:00:52.064Z,0.00
2019-01-17T02:01:52.056Z,0.00
2019-01-17T02:02:52.041Z,0.00
2019-01-17T02:03:52.049Z,0.00
2019-01-17T02:04:52.038Z,0.00
2019-01-17T02:05:52.029Z,0.00
2019-01-17T02:06:51.995Z,0.00
2019-01-17T02:07:51.997Z,0.00
2019-01-17T02:08:52.027Z,0.00
2019-01-17T02:09:51.967Z,0.00
2019-01-17T02:10:51.968Z,0.00
2019-01-17T02:11:51.943Z,0.00
2019-01-17T02:12:51.941Z,0.00
2019-01-17T02:13:51.950Z,0.00
2019-01-17T02:14:51.988Z,0.00
2019-01-17T02:15:51.907Z,0.00
2019-01-17T02:16:51.889Z,0.00
2019-01-17T02:17:51.894Z,0.00
2019-01-17T02:18:51.872Z,0.00
2019-01-17T02:19:51.857Z,0.00
2019-01-17T02:20:51.852Z,0.00
2019-01-17T02:21:51.853Z,0.00
2019-01-17T02:22:51.854Z,0.00
2019-01-17T02:23:51.815Z,0.00
2019-01-17T02:24:51.808Z,0.00
2019-01-17T02:25:51.792Z,0.00
2019-01-17T02:26:51.788Z,0.00
2019-01-17T02:27:51.775Z,0.00
2019-01-17T02:28:51.821Z,0.00
2019-01-17T02:29:51.749Z,0.00
2019-01-17T02:30:51.809Z,0.00
2019-01-17T02:31:51.727Z,0.00
2019-01-17T02:32:51.768Z,0.00
2019-01-17T02:33:51.714Z,0.00
2019-01-17T02:34:51.693Z,0.00
2019-01-17T02:35:51.687Z,0.00
2019-01-17T02:36:51.686Z,0.00
2019-01-17T02:37:51.671Z,0.00
2019-01-17T02:38:51.653Z,0.00
2019-01-17T02:39:51.640Z,0.00
2019-01-17T02:40:51.634Z,0.00
2019-01-17T02:41:51.622Z,0.00
2019-01-17T02:42:51.617Z,0.00
2019-01-17T02:43:51.604Z,0.00
2019-01-17T02:44:51.595Z,0.00
2019-01-17T02:45:51.581Z,0.00
2019-01-17T02:46:51.576Z,0.00
2019-01-17T02:47:51.581Z,0.00
2019-01-17T02:48:51.544Z,0.00
2019-01-17T02:49:51.532Z,0.00
2019-01-17T02:50:51.526Z,0.00
2019-01-17T02:51:51.578Z,0.00
2019-01-17T02:52:51.510Z,0.00
2019-01-17T02:53:51.490Z,0.00
2019-01-17T02:54:51.517Z,0.00
2019-01-17T02:55:51.472Z,0.00
2019-01-17T02:56:51.455Z,0.00
2019-01-17T02:57:51.460Z,0.00
2019-01-17T02:58:51.442Z,0.00
2019-01-17T02:59:51.447Z,0.00
2019-01-17T03:00:51.422Z,0.00
2019-01-17T03:01:51.409Z,0.00
2019-01-17T03:02:51.395Z,0.00
2019-01-17T03:03:51.399Z,0.00
2019-01-17T03:04:51.388Z,0.00
2019-01-17T03:05:51.385Z,0.00
2019-01-17T03:06:51.355Z,0.00
2019-01-17T03:07:51.347Z,0.00
2019-01-17T03:08:51.331Z,0.00
2019-01-17T03:09:51.328Z,0.00
2019-01-17T03:10:51.309Z,0.00
2019-01-17T03:11:51.300Z,0.00
2019-01-17T03:12:51.289Z,0.00
2019-01-17T03:13:51.277Z,0.00
2019-01-17T03:14:51.266Z,0.00
2019-01-17T03:15:51.253Z,0.00
2019-01-17T03:16:51.243Z,0.00
2019-01-17T03:17:51.241Z,0.00
2019-01-17T03:18:51.217Z,0.00
2019-01-17T03:19:51.211Z,0.00
2019-01-17T03:20:51.199Z,0.00
2019-01-17T03:21:51.236Z,0.00
2019-01-17T03:23:51.169Z,0.00
2019-01-17T03:24:51.170Z,0.00
2019-01-17T03:25:51.141Z,0.00
2019-01-17T03:26:51.133Z,0.00
2019-01-17T03:28:51.110Z,0.00
2019-01-17T03:29:51.105Z,0.00
2019-01-17T03:32:51.077Z,0.00
2019-01-17T03:35:51.037Z,0.00
2019-01-17T03:41:50.978Z,0.00
2019-01-17T03:42:50.956Z,0.00
2019-01-17T03:43:50.953Z,0.00
2019-01-17T03:45:50.972Z,0.00
2019-01-17T03:49:50.892Z,0.00
2019-01-17T04:24:57.130Z,0.00
2019-01-17T04:26:15.679Z,0.00
2019-01-17T04:29:15.644Z,0.00
2019-01-17T04:33:15.701Z,0.00
2019-01-17T04:39:15.537Z,0.00
2019-01-17T04:41:15.517Z,0.00
2019-01-17T04:43:15.497Z,0.00
2019-01-17T05:18:15.138Z,0.00
2019-01-17T05:34:14.952Z,0.00
2019-01-17T05:59:14.681Z,0.00
2019-01-17T06:31:14.322Z,0.00
2019-01-17T06:32:14.323Z,0.00
2019-01-17T06:34:14.306Z,0.00
2019-01-17T06:45:39.852Z,0.00
2019-01-17T06:50:39.801Z,52.00
2019-01-17T06:51:39.783Z,76.00
2019-01-17T06:52:39.796Z,88.00
2019-01-17T06:53:39.775Z,96.00
2019-01-17T06:54:39.753Z,96.00
2019-01-17T06:55:39.759Z,96.00
2019-01-17T06:56:39.731Z,100.00
2019-01-17T06:57:39.736Z,100.00
2019-01-17T06:58:39.721Z,100.00
2019-01-17T06:59:39.714Z,100.00
2019-01-17T07:00:40.076Z,100.00
2019-01-17T07:01:39.707Z,104.00
2019-01-17T07:02:39.674Z,108.00
2019-01-17T07:03:39.735Z,108.00
2019-01-17T07:04:39.647Z,116.00
2019-01-17T07:05:39.676Z,116.00
2019-01-17T07:06:39.622Z,120.00
2019-01-17T07:07:39.613Z,124.00
2019-01-17T07:08:39.617Z,128.00
2019-01-17T07:09:39.592Z,132.00
2019-01-17T07:10:39.582Z,144.00
2019-01-17T07:11:39.570Z,148.00
2019-01-17T07:12:39.554Z,160.00
2019-01-17T07:13:39.544Z,168.00
2019-01-17T07:14:39.560Z,180.00
2019-01-17T07:15:39.535Z,188.00
2019-01-17T07:16:39.512Z,200.00
2019-01-17T07:17:42.649Z,212.00
2019-01-17T07:18:39.494Z,228.00
2019-01-17T07:19:39.501Z,240.00
2019-01-17T07:20:39.475Z,252.00
2019-01-17T07:21:39.465Z,272.00
2019-01-17T07:22:39.456Z,284.00
2019-01-17T07:23:39.450Z,304.00
2019-01-17T07:24:39.545Z,324.00
2019-01-17T07:25:41.083Z,340.00
2019-01-17T07:26:39.406Z,360.00
2019-01-17T07:27:39.395Z,380.00
2019-01-17T07:28:39.380Z,400.00
2019-01-17T07:29:39.397Z,420.00
2019-01-17T07:30:39.373Z,440.00
2019-01-17T07:31:43.110Z,464.00
2019-01-17T07:32:39.344Z,488.00
2019-01-17T07:33:39.335Z,512.00
2019-01-17T07:34:39.325Z,532.00
2019-01-17T07:35:39.318Z,556.00
2019-01-17T07:36:39.296Z,584.00
2019-01-17T07:37:39.301Z,608.00
2019-01-17T07:38:39.277Z,640.00
2019-01-17T07:39:39.283Z,668.00
2019-01-17T07:40:40.337Z,700.00
2019-01-17T07:41:39.262Z,732.00
2019-01-17T07:42:39.238Z,760.00
2019-01-17T07:43:39.238Z,792.00
2019-01-17T07:44:39.222Z,820.00
2019-01-17T07:45:41.770Z,848.00
2019-01-17T07:46:39.205Z,880.00
2019-01-17T07:47:39.208Z,912.00
2019-01-17T07:48:39.175Z,948.00
2019-01-17T07:49:39.164Z,976.00
2019-01-17T07:50:39.155Z,1008.00
2019-01-17T07:51:39.157Z,1040.00
2019-01-17T07:52:39.145Z,1072.00
2019-01-17T07:53:39.116Z,1104.00
2019-01-17T07:54:39.118Z,1140.00
2019-01-17T07:55:39.097Z,1176.00
2019-01-17T07:56:39.085Z,1216.00
2019-01-17T07:57:39.084Z,1252.00
2019-01-17T07:58:39.071Z,1288.00
2019-01-17T07:59:39.051Z,1316.00
2019-01-17T08:00:39.051Z,1356.00
2019-01-17T08:01:39.036Z,1396.00
2019-01-17T08:02:39.037Z,1440.00
2019-01-17T08:03:39.018Z,1480.00
2019-01-17T08:04:39.013Z,1520.00
2019-01-17T08:05:38.993Z,1552.00
2019-01-17T08:06:38.993Z,1592.00
2019-01-17T08:07:39.186Z,1632.00
2019-01-17T08:08:38.962Z,1684.00
2019-01-17T08:09:38.960Z,1724.00
2019-01-17T08:10:38.946Z,1740.00
2019-01-17T08:11:38.949Z,1776.00
2019-01-17T08:12:38.958Z,1816.00
2019-01-17T08:13:38.916Z,1864.00
2019-01-17T08:14:38.915Z,1924.00
2019-01-17T08:15:38.887Z,1988.00
2019-01-17T08:16:38.877Z,2044.00
2019-01-17T08:17:38.882Z,2096.00
2019-01-17T08:18:38.874Z,2124.00
2019-01-17T08:19:38.844Z,2144.00
2019-01-17T08:20:38.862Z,2176.00
2019-01-17T08:21:38.863Z,2212.00
2019-01-17T08:22:38.837Z,2220.00
2019-01-17T08:23:38.799Z,2208.00
2019-01-17T08:24:38.791Z,2168.00
2019-01-17T08:25:38.814Z,2132.00
2019-01-17T08:26:38.776Z,2104.00
2019-01-17T08:27:38.770Z,2108.00
2019-01-17T08:28:38.881Z,2184.00
2019-01-17T08:29:38.739Z,2268.00
2019-01-17T08:30:38.736Z,2336.00
2019-01-17T08:31:38.716Z,2356.00
2019-01-17T08:32:38.734Z,2372.00
2019-01-17T08:33:38.702Z,2344.00
2019-01-17T08:34:38.697Z,2300.00
2019-01-17T08:35:38.708Z,2252.00
2019-01-17T08:36:38.672Z,2252.00
2019-01-17T08:37:38.681Z,2280.00
2019-01-17T08:38:39.729Z,2304.00
2019-01-17T08:39:38.650Z,2392.00
2019-01-17T08:40:38.743Z,2524.00
2019-01-17T08:41:38.613Z,2612.00
2019-01-17T08:42:38.625Z,2724.00
2019-01-17T08:43:38.600Z,2776.00
2019-01-17T08:44:38.671Z,2756.00
2019-01-17T08:45:39.363Z,2768.00
2019-01-17T08:46:38.598Z,2736.00
2019-01-17T08:47:38.551Z,2684.00
2019-01-17T08:48:38.543Z,2696.00
2019-01-17T08:49:38.533Z,2668.00
2019-01-17T08:50:38.542Z,2756.00
2019-01-17T08:51:40.376Z,2884.00
2019-01-17T08:52:38.516Z,2936.00
2019-01-17T08:53:38.561Z,2924.00
2019-01-17T08:54:38.477Z,3020.00
2019-01-17T08:55:38.463Z,2928.00
2019-01-17T08:56:38.457Z,2776.00
2019-01-17T08:57:38.459Z,2800.00
2019-01-17T08:58:38.449Z,2776.00
2019-01-17T08:59:38.452Z,2812.00
2019-01-17T09:00:39.201Z,2868.00
2019-01-17T09:01:38.418Z,2956.00
2019-01-17T09:02:38.393Z,3060.00
2019-01-17T09:03:38.394Z,3208.00
2019-01-17T09:04:40.235Z,3352.00
2019-01-17T09:05:38.357Z,3520.00
2019-01-17T09:06:38.351Z,3764.00
2019-01-17T09:07:38.357Z,4040.00
2019-01-17T09:08:38.340Z,4320.00
2019-01-17T09:09:38.353Z,4524.00
2019-01-17T09:10:38.307Z,4428.00
2019-01-17T09:11:38.375Z,4232.00
2019-01-17T09:12:38.287Z,4076.00
2019-01-17T09:13:38.283Z,3932.00
2019-01-17T09:14:38.309Z,3768.00
2019-01-17T09:15:39.739Z,3532.00
2019-01-17T09:16:38.254Z,3252.00
2019-01-17T09:17:38.261Z,3056.00
2019-01-17T09:18:38.224Z,3016.00
2019-01-17T09:19:38.210Z,3188.00
2019-01-17T09:20:39.206Z,3556.00
2019-01-17T09:21:38.189Z,3896.00
2019-01-17T09:22:38.202Z,4100.00
2019-01-17T09:23:39.380Z,4200.00
2019-01-17T09:24:38.166Z,4060.00
2019-01-17T09:25:38.160Z,3708.00
2019-01-17T09:26:38.132Z,3288.00
2019-01-17T09:27:38.113Z,3040.00
2019-01-17T09:28:38.103Z,3000.00
2019-01-17T09:29:39.137Z,3020.00
2019-01-17T09:30:46.036Z,3132.00
2019-01-17T09:31:39.112Z,3304.00
2019-01-17T09:32:38.104Z,3416.00
2019-01-17T09:33:38.052Z,3744.00
2019-01-17T09:34:39.082Z,4404.00
2019-01-17T09:35:38.040Z,4928.00
2019-01-17T09:36:38.101Z,5188.00
2019-01-17T09:37:38.009Z,5528.00
2019-01-17T09:38:38.002Z,5740.00
2019-01-17T09:39:37.985Z,5636.00
2019-01-17T09:40:38.022Z,5400.00
2019-01-17T09:41:37.967Z,5140.00
2019-01-17T09:42:37.962Z,4888.00
2019-01-17T09:43:37.947Z,4492.00
2019-01-17T09:44:37.942Z,4068.00
2019-01-17T09:45:37.917Z,3704.00
2019-01-17T09:46:38.117Z,3668.00
2019-01-17T09:47:37.902Z,4000.00
2019-01-17T09:48:37.905Z,4548.00
2019-01-17T09:49:37.876Z,5476.00
2019-01-17T09:50:37.884Z,6132.00
2019-01-17T09:51:37.848Z,6172.00
2019-01-17T09:52:37.838Z,6180.00
2019-01-17T09:53:37.835Z,6332.00
2019-01-17T09:54:37.831Z,6100.00
2019-01-17T09:55:38.029Z,5528.00
2019-01-17T09:56:37.837Z,5220.00
2019-01-17T09:57:37.785Z,5324.00
2019-01-17T09:58:37.782Z,5648.00
2019-01-17T09:59:37.794Z,5192.00
2019-01-17T10:00:37.751Z,4620.00
2019-01-17T10:01:37.833Z,4384.00
2019-01-17T10:02:41.799Z,3980.00
2019-01-17T10:03:37.722Z,4192.00
2019-01-17T10:04:37.779Z,4404.00
2019-01-17T10:05:37.703Z,4004.00
2019-01-17T10:06:38.309Z,4020.00
2019-01-17T10:07:37.681Z,4804.00
2019-01-17T10:08:37.657Z,5268.00
2019-01-17T10:09:37.675Z,5956.00
2019-01-17T10:10:37.845Z,6340.00
2019-01-17T10:11:37.631Z,6392.00
2019-01-17T10:12:37.629Z,6812.00
2019-01-17T10:13:37.609Z,7544.00
2019-01-17T10:14:37.610Z,7212.00
2019-01-17T10:15:38.180Z,5832.00
2019-01-17T10:16:37.579Z,7192.00
2019-01-17T10:17:37.630Z,7084.00
2019-01-17T10:18:37.640Z,7292.00
2019-01-17T10:19:37.550Z,7140.00
2019-01-17T10:20:38.565Z,6420.00
2019-01-17T10:21:37.525Z,6800.00
2019-01-17T10:22:37.512Z,8452.00
2019-01-17T10:23:37.534Z,7460.00
2019-01-17T10:24:37.508Z,6684.00
2019-01-17T10:25:37.487Z,7028.00
2019-01-17T10:26:37.474Z,8124.00
2019-01-17T10:27:37.468Z,6896.00
2019-01-17T10:28:37.533Z,5928.00
2019-01-17T10:29:37.436Z,6608.00
2019-01-17T10:30:37.435Z,6532.00
2019-01-17T10:31:37.417Z,6456.00
2019-01-17T10:32:37.455Z,5296.00
2019-01-17T10:33:37.394Z,4512.00
2019-01-17T10:34:37.384Z,5444.00
2019-01-17T10:35:37.365Z,6944.00
2019-01-17T10:36:37.382Z,6040.00
2019-01-17T10:37:37.370Z,5764.00
2019-01-17T10:38:37.334Z,6600.00
2019-01-17T10:39:37.326Z,6196.00
2019-01-17T10:40:37.337Z,5548.00
2019-01-17T10:41:37.624Z,4876.00
2019-01-17T10:42:37.305Z,5244.00
2019-01-17T10:43:37.294Z,5372.00
2019-01-17T10:44:37.292Z,4648.00
2019-01-17T10:45:37.264Z,4892.00
2019-01-17T10:46:37.288Z,5428.00
2019-01-17T10:47:37.317Z,5444.00
2019-01-17T10:48:37.225Z,5156.00
2019-01-17T10:49:37.218Z,5412.00
2019-01-17T10:50:37.209Z,5948.00
2019-01-17T10:51:38.209Z,6724.00
2019-01-17T10:52:37.188Z,7392.00
2019-01-17T10:53:37.187Z,7336.00
2019-01-17T10:54:37.171Z,7424.00
2019-01-17T10:55:37.154Z,7444.00
2019-01-17T10:56:41.321Z,7452.00
2019-01-17T10:57:39.263Z,6568.00
2019-01-17T10:58:38.122Z,6332.00
2019-01-17T10:59:37.113Z,4232.00
2019-01-17T11:00:37.106Z,3796.00
2019-01-17T11:01:37.096Z,3684.00
2019-01-17T11:02:37.116Z,4624.00
2019-01-17T11:03:37.082Z,5264.00
2019-01-17T11:04:37.170Z,3836.00
2019-01-17T11:05:37.118Z,3616.00
2019-01-17T11:06:37.028Z,4768.00
2019-01-17T11:07:37.081Z,4712.00
2019-01-17T11:08:37.076Z,4180.00
2019-01-17T11:09:37.085Z,4516.00
2019-01-17T11:10:36.991Z,5356.00
2019-01-17T11:11:37.006Z,6064.00
2019-01-17T11:12:38.340Z,5608.00
2019-01-17T11:13:38.053Z,5120.00
2019-01-17T11:14:36.966Z,5492.00
2019-01-17T11:15:37.088Z,6796.00
2019-01-17T11:16:39.134Z,7556.00
2019-01-17T11:17:36.994Z,7536.00
2019-01-17T11:18:36.929Z,7372.00
2019-01-17T11:19:36.953Z,9564.00
2019-01-17T11:20:36.896Z,8384.00
2019-01-17T11:21:36.889Z,7320.00
2019-01-17T11:22:36.920Z,7632.00
2019-01-17T11:23:36.865Z,7672.00
2019-01-17T11:24:36.857Z,4696.00
2019-01-17T11:25:36.828Z,3644.00
2019-01-17T11:26:36.821Z,3048.00
2019-01-17T11:27:37.176Z,2580.00
2019-01-17T11:28:36.820Z,2416.00
2019-01-17T11:29:36.787Z,2924.00
2019-01-17T11:30:36.785Z,3064.00
2019-01-17T11:31:36.775Z,3448.00
2019-01-17T11:32:36.749Z,3336.00
2019-01-17T11:33:36.778Z,3100.00
2019-01-17T11:34:36.739Z,4896.00
2019-01-17T11:35:36.738Z,5380.00
2019-01-17T11:36:36.730Z,5280.00
2019-01-17T11:37:36.716Z,5332.00
2019-01-17T11:38:36.691Z,6296.00
2019-01-17T11:39:36.696Z,7016.00
2019-01-17T11:40:36.674Z,7580.00
2019-01-17T11:41:36.664Z,8180.00
2019-01-17T11:42:36.642Z,9732.00
2019-01-17T11:43:36.778Z,8044.00
2019-01-17T11:44:36.636Z,7444.00
2019-01-17T11:45:36.610Z,7208.00
2019-01-17T11:46:36.609Z,7356.00
2019-01-17T11:47:36.606Z,7044.00
2019-01-17T11:48:36.600Z,6572.00
2019-01-17T11:49:36.602Z,5496.00
2019-01-17T11:50:36.572Z,4232.00
2019-01-17T11:51:38.049Z,4288.00
2019-01-17T11:52:36.555Z,4064.00
2019-01-17T11:53:36.524Z,5396.00
2019-01-17T11:54:36.510Z,4460.00
2019-01-17T11:55:36.504Z,3884.00
2019-01-17T11:56:40.886Z,6080.00
2019-01-17T11:57:36.487Z,7632.00
2019-01-17T11:58:36.471Z,8780.00
2019-01-17T11:59:36.480Z,8992.00
2019-01-17T12:00:38.252Z,8528.00
2019-01-17T12:01:36.455Z,7652.00
2019-01-17T12:02:39.284Z,8192.00
2019-01-17T12:03:36.411Z,9076.00
2019-01-17T12:04:36.413Z,9268.00
2019-01-17T12:05:36.467Z,9072.00
2019-01-17T12:06:36.387Z,10112.00
2019-01-17T12:07:36.378Z,11412.00
2019-01-17T12:08:36.362Z,10780.00
2019-01-17T12:09:36.366Z,9240.00
2019-01-17T12:10:36.356Z,7688.00
2019-01-17T12:11:36.331Z,8144.00
2019-01-17T12:12:36.333Z,7996.00
2019-01-17T12:13:36.298Z,6632.00
2019-01-17T12:14:36.328Z,6024.00
2019-01-17T12:15:38.209Z,5960.00
2019-01-17T12:16:36.273Z,5852.00
2019-01-17T12:17:36.298Z,5324.00
2019-01-17T12:18:37.448Z,4264.00
2019-01-17T12:19:38.511Z,4552.00
2019-01-17T12:20:36.235Z,4408.00
2019-01-17T12:21:36.529Z,4896.00
2019-01-17T12:22:36.279Z,4624.00
2019-01-17T12:23:36.219Z,4532.00
2019-01-17T12:24:36.189Z,4780.00
2019-01-17T12:25:36.183Z,5044.00
2019-01-17T12:26:36.217Z,4780.00
2019-01-17T12:27:42.338Z,4800.00
2019-01-17T12:29:01.787Z,3840.00
2019-01-17T12:30:01.775Z,3368.00
2019-01-17T12:31:01.752Z,3208.00
2019-01-17T12:32:01.752Z,3644.00
2019-01-17T12:33:01.734Z,3492.00
2019-01-17T12:34:01.736Z,3616.00
2019-01-17T12:35:01.735Z,3340.00
2019-01-17T12:36:01.704Z,3616.00
2019-01-17T12:37:01.695Z,3576.00
2019-01-17T12:38:01.714Z,2964.00
2019-01-17T12:39:02.685Z,2508.00
2019-01-17T12:40:01.669Z,2080.00
2019-01-17T12:41:01.639Z,1724.00
2019-01-17T12:42:01.653Z,1324.00
2019-01-17T12:43:01.622Z,1448.00
2019-01-17T12:44:01.613Z,1904.00
2019-01-17T12:45:01.616Z,2964.00
2019-01-17T12:46:01.609Z,3552.00
2019-01-17T12:47:01.586Z,4312.00
2019-01-17T12:48:01.569Z,4652.00
2019-01-17T12:49:01.558Z,5064.00
2019-01-17T12:50:01.998Z,5140.00
2019-01-17T12:51:01.564Z,4584.00
2019-01-17T12:52:01.640Z,3680.00
2019-01-17T12:53:01.506Z,3476.00
2019-01-17T12:54:01.502Z,3436.00
2019-01-17T12:55:01.514Z,3600.00
2019-01-17T12:56:01.479Z,3664.00
2019-01-17T12:57:01.463Z,3748.00
2019-01-17T12:58:01.478Z,3660.00
2019-01-17T12:59:01.729Z,3700.00
2019-01-17T13:00:07.576Z,3684.00
2019-01-17T13:01:26.803Z,3600.00
2019-01-17T13:02:26.650Z,3568.00
2019-01-17T13:03:26.708Z,3404.00
2019-01-17T13:04:26.618Z,3556.00
2019-01-17T13:05:26.609Z,3488.00
2019-01-17T13:06:26.602Z,3228.00
2019-01-17T13:07:26.606Z,3532.00
2019-01-17T13:08:26.640Z,3676.00
2019-01-17T13:09:27.562Z,3360.00
2019-01-17T13:10:26.560Z,3636.00
2019-01-17T13:11:26.677Z,4676.00
2019-01-17T13:12:26.553Z,5032.00
2019-01-17T13:13:26.533Z,4708.00
2019-01-17T13:14:26.523Z,4640.00
2019-01-17T13:15:26.532Z,4720.00
2019-01-17T13:16:26.496Z,5124.00
2019-01-17T13:17:27.603Z,5508.00
2019-01-17T13:18:26.463Z,5728.00
2019-01-17T13:19:26.494Z,5108.00
2019-01-17T13:20:26.513Z,5120.00
2019-01-17T13:21:26.472Z,5340.00
2019-01-17T13:22:26.429Z,6352.00
2019-01-17T13:23:26.411Z,6480.00
2019-01-17T13:24:26.411Z,5596.00
2019-01-17T13:25:26.416Z,5948.00
2019-01-17T13:26:26.386Z,6136.00
2019-01-17T13:27:26.370Z,5776.00
2019-01-17T13:28:26.392Z,4876.00
2019-01-17T13:29:26.442Z,4844.00
2019-01-17T13:30:27.339Z,4936.00
2019-01-17T13:31:30.581Z,5964.00
2019-01-17T13:32:26.368Z,5508.00
2019-01-17T13:33:26.303Z,6092.00
2019-01-17T13:34:26.293Z,7396.00
2019-01-17T13:35:26.284Z,7988.00
2019-01-17T13:36:26.278Z,7972.00
2019-01-17T13:37:26.272Z,7724.00
2019-01-17T13:38:26.271Z,7464.00
2019-01-17T13:39:26.240Z,7420.00
2019-01-17T13:40:26.265Z,7508.00
2019-01-17T13:41:26.952Z,7852.00
2019-01-17T13:42:26.997Z,6708.00
2019-01-17T13:43:26.210Z,6260.00
2019-01-17T13:44:26.216Z,6932.00
2019-01-17T13:45:26.189Z,6092.00
2019-01-17T13:46:26.167Z,5964.00
2019-01-17T13:47:26.149Z,5668.00
2019-01-17T13:48:26.284Z,6304.00
2019-01-17T13:49:26.151Z,6064.00
2019-01-17T13:50:26.123Z,4848.00
2019-01-17T13:51:26.105Z,4116.00
2019-01-17T13:52:26.114Z,4544.00
2019-01-17T13:53:26.112Z,4368.00
2019-01-17T13:54:27.045Z,5044.00
2019-01-17T13:55:26.088Z,4864.00
2019-01-17T13:56:26.056Z,4408.00
2019-01-17T13:57:26.109Z,4188.00
2019-01-17T13:58:26.030Z,4156.00
2019-01-17T13:59:26.024Z,4196.00
2019-01-17T14:00:37.026Z,3432.00
2019-01-17T14:01:27.001Z,2304.00
2019-01-17T14:02:25.991Z,1708.00
2019-01-17T14:03:25.976Z,1864.00
2019-01-17T14:04:25.967Z,2404.00
2019-01-17T14:05:25.966Z,1912.00
2019-01-17T14:06:25.954Z,2420.00
2019-01-17T14:07:25.940Z,2560.00
2019-01-17T14:08:25.922Z,2180.00
2019-01-17T14:09:25.924Z,1756.00
2019-01-17T14:10:25.908Z,2404.00
2019-01-17T14:11:25.920Z,2164.00
2019-01-17T14:12:25.881Z,1900.00
2019-01-17T14:13:25.916Z,1808.00
2019-01-17T14:14:25.860Z,1676.00
2019-01-17T14:15:25.858Z,1388.00
2019-01-17T14:16:25.840Z,1332.00
2019-01-17T14:17:25.907Z,1120.00
2019-01-17T14:18:27.964Z,1048.00
2019-01-17T14:19:25.807Z,864.00
2019-01-17T14:20:25.796Z,1072.00
2019-01-17T14:21:25.795Z,1028.00
2019-01-17T14:22:25.771Z,1068.00
2019-01-17T14:23:25.765Z,1332.00
2019-01-17T14:24:25.758Z,1716.00
2019-01-17T14:25:27.556Z,2376.00
2019-01-17T14:26:25.765Z,3052.00
2019-01-17T14:27:25.719Z,3188.00
2019-01-17T14:28:25.704Z,3476.00
2019-01-17T14:29:25.821Z,4068.00
2019-01-17T14:30:25.742Z,3680.00
2019-01-17T14:31:25.776Z,3832.00
2019-01-17T14:32:25.666Z,3980.00
2019-01-17T14:33:25.662Z,3972.00
2019-01-17T14:34:25.656Z,3396.00
2019-01-17T14:35:25.624Z,3148.00
2019-01-17T14:36:25.621Z,3696.00
2019-01-17T14:37:25.681Z,3224.00
2019-01-17T14:38:25.599Z,2768.00
2019-01-17T14:39:25.644Z,1356.00
2019-01-17T14:40:25.575Z,820.00
2019-01-17T14:41:25.575Z,756.00
2019-01-17T14:42:25.561Z,560.00
2019-01-17T14:43:25.545Z,740.00
2019-01-17T14:44:25.528Z,888.00
2019-01-17T14:45:25.543Z,556.00
2019-01-17T14:46:25.521Z,400.00
2019-01-17T14:47:25.526Z,700.00
2019-01-17T14:48:25.489Z,740.00
2019-01-17T14:49:25.476Z,588.00
2019-01-17T14:50:25.545Z,540.00
2019-01-17T14:51:25.460Z,608.00
2019-01-17T14:52:25.441Z,908.00
2019-01-17T14:53:25.433Z,1192.00
2019-01-17T14:54:25.422Z,1172.00
2019-01-17T14:55:25.434Z,1508.00
2019-01-17T14:56:25.407Z,1480.00
2019-01-17T14:57:25.398Z,1320.00
2019-01-17T14:58:25.373Z,1224.00
2019-01-17T14:59:25.370Z,1296.00
2019-01-17T15:00:25.353Z,1296.00
2019-01-17T15:01:25.372Z,1204.00
2019-01-17T15:02:25.334Z,1312.00
2019-01-17T15:03:25.381Z,1364.00
2019-01-17T15:04:25.311Z,1400.00
2019-01-17T15:05:25.299Z,1516.00
2019-01-17T15:06:25.299Z,1640.00
2019-01-17T15:07:25.288Z,1716.00
2019-01-17T15:08:25.278Z,1748.00
2019-01-17T15:09:25.279Z,1756.00
2019-01-17T15:10:25.321Z,1772.00
2019-01-17T15:11:25.282Z,1792.00
2019-01-17T15:12:25.225Z,1812.00
2019-01-17T15:13:25.218Z,1732.00
2019-01-17T15:14:25.256Z,1600.00
2019-01-17T15:15:25.235Z,1500.00
2019-01-17T15:16:25.229Z,1428.00
2019-01-17T15:17:25.175Z,1352.00
2019-01-17T15:18:25.157Z,1280.00
2019-01-17T15:19:25.197Z,1224.00
2019-01-17T15:20:25.154Z,1220.00
2019-01-17T15:21:25.132Z,1284.00
2019-01-17T15:22:25.116Z,1344.00
2019-01-17T15:23:25.109Z,1348.00
2019-01-17T15:24:25.113Z,1292.00
2019-01-17T15:25:25.118Z,1188.00
2019-01-17T15:26:25.082Z,1056.00
2019-01-17T15:27:27.383Z,928.00
2019-01-17T15:28:25.052Z,808.00
2019-01-17T15:29:26.444Z,664.00
2019-01-17T15:30:25.034Z,448.00
2019-01-17T15:31:25.014Z,408.00